createdAt,value
2022-12-19T00:01:19.152Z,71.17
2022-12-19T00:03:54.219Z,71.44
2022-12-19T00:06:30.226Z,71.21
2022-12-19T00:09:01.809Z,70.83
2022-12-19T00:11:33.966Z,70.87
2022-12-19T00:14:05.855Z,71.23
2022-12-19T00:16:37.556Z,71.56
2022-12-19T00:19:10.552Z,71.60
2022-12-19T00:21:42.177Z,71.65
2022-12-19T00:24:20.868Z,71.85
2022-12-19T00:26:55.592Z,71.76
2022-12-19T00:29:28.395Z,71.79
2022-12-19T00:31:59.979Z,71.52
2022-12-19T00:34:31.638Z,71.62
2022-12-19T00:37:06.958Z,71.71
2022-12-19T00:39:41.817Z,71.77
2022-12-19T00:42:13.465Z,71.56
2022-12-19T00:44:47.677Z,71.38
2022-12-19T00:47:19.273Z,71.51
2022-12-19T00:49:51.024Z,71.85
2022-12-19T00:52:22.614Z,71.93
2022-12-19T00:54:57.209Z,72.05
2022-12-19T00:57:29.847Z,71.82
2022-12-19T01:00:01.528Z,72.22
2022-12-19T01:02:33.234Z,72.06
2022-12-19T01:05:08.461Z,72.09
2022-12-19T01:07:43.026Z,72.17
2022-12-19T01:10:14.705Z,72.51
2022-12-19T01:12:46.277Z,72.35
2022-12-19T01:15:20.727Z,72.34
2022-12-19T01:17:52.363Z,72.24
2022-12-19T01:20:29.654Z,72.69
2022-12-19T01:23:02.454Z,73.42
2022-12-19T01:25:39.125Z,73.26
2022-12-19T01:28:16.501Z,73.19
2022-12-19T01:30:49.597Z,73.02
2022-12-19T01:33:23.013Z,72.86
2022-12-19T01:35:54.644Z,72.34
2022-12-19T01:38:26.222Z,72.82
2022-12-19T01:40:57.884Z,73.57
2022-12-19T01:43:34.237Z,73.59
2022-12-19T01:46:14.687Z,73.82
2022-12-19T01:48:47.992Z,73.58
2022-12-19T01:51:26.828Z,74.06
2022-12-19T01:54:06.640Z,74.12
2022-12-19T01:56:42.473Z,73.97
2022-12-19T01:59:19.793Z,73.88
2022-12-19T02:02:00.403Z,73.46
2022-12-19T02:04:32.804Z,73.29
2022-12-19T02:07:15.997Z,73.77
2022-12-19T02:09:57.339Z,73.98
2022-12-19T02:12:43.146Z,73.20
2022-12-19T02:15:17.335Z,73.38
2022-12-19T02:18:11.711Z,73.22
2022-12-19T02:21:05.007Z,73.41
2022-12-19T02:24:14.708Z,73.10
2022-12-19T02:26:59.594Z,73.03
2022-12-19T02:30:06.347Z,73.05
2022-12-19T02:33:21.037Z,73.03
2022-12-19T02:36:05.244Z,73.51
2022-12-19T02:38:43.724Z,73.21
2022-12-19T02:41:26.079Z,74.08
2022-12-19T02:43:59.209Z,73.82
2022-12-19T02:46:34.733Z,73.81
2022-12-19T02:49:06.587Z,73.77
2022-12-19T02:51:38.150Z,74.04
2022-12-19T02:54:12.836Z,74.00
2022-12-19T02:57:00.420Z,74.27
2022-12-19T02:59:42.994Z,73.91
2022-12-19T03:02:43.185Z,73.83
2022-12-19T03:05:45.988Z,73.96
2022-12-19T03:08:47.393Z,73.86
2022-12-19T03:11:23.251Z,73.74
2022-12-19T03:14:00.733Z,73.66
2022-12-19T03:16:35.907Z,73.28
2022-12-19T03:19:10.579Z,73.48
2022-12-19T03:21:47.661Z,73.42
2022-12-19T03:24:22.932Z,73.08
2022-12-19T03:27:22.612Z,73.07
2022-12-19T03:30:07.723Z,73.16
2022-12-19T03:32:41.558Z,73.45
2022-12-19T03:35:20.506Z,73.25
2022-12-19T03:37:55.205Z,73.24
2022-12-19T03:40:28.769Z,73.20
2022-12-19T03:43:11.292Z,73.17
2022-12-19T03:45:43.457Z,73.55
2022-12-19T03:48:47.792Z,73.92
2022-12-19T03:51:46.151Z,73.63
2022-12-19T03:54:27.367Z,73.73
2022-12-19T03:57:20.074Z,73.82
2022-12-19T04:00:00.913Z,74.05
2022-12-19T04:02:36.246Z,73.99
2022-12-19T04:05:10.513Z,73.93
2022-12-19T04:07:46.274Z,74.27
2022-12-19T04:10:21.825Z,74.05
2022-12-19T04:13:01.819Z,73.68
2022-12-19T04:16:00.427Z,74.25
2022-12-19T04:18:33.776Z,73.81
2022-12-19T04:21:19.414Z,73.54
2022-12-19T04:24:20.673Z,73.59
2022-12-19T04:26:54.923Z,73.75
2022-12-19T04:29:28.630Z,73.64
2022-12-19T04:32:02.540Z,73.51
2022-12-19T04:34:36.882Z,73.86
2022-12-19T04:37:12.383Z,73.38
2022-12-19T04:39:44.120Z,72.76
2022-12-19T04:42:15.699Z,73.08
2022-12-19T04:44:47.331Z,72.98
2022-12-19T04:47:19.135Z,73.35
2022-12-19T04:49:51.801Z,73.36
2022-12-19T04:52:23.355Z,73.71
2022-12-19T04:54:55.942Z,73.42
2022-12-19T04:57:34.415Z,73.74
2022-12-19T05:00:08.645Z,74.01
2022-12-19T05:02:40.448Z,73.61
2022-12-19T05:05:14.398Z,73.74
2022-12-19T05:07:49.677Z,73.94
2022-12-19T05:10:21.546Z,73.91
2022-12-19T05:12:55.137Z,73.60
2022-12-19T05:15:26.749Z,73.83
2022-12-19T05:17:58.333Z,73.99
2022-12-19T05:20:29.960Z,74.16
2022-12-19T05:23:05.009Z,74.78
2022-12-19T05:25:38.378Z,74.46
2022-12-19T05:28:11.171Z,74.63
2022-12-19T05:30:49.159Z,74.79
2022-12-19T05:33:25.894Z,74.51
2022-12-19T05:35:57.567Z,74.47
2022-12-19T05:38:32.514Z,74.10
2022-12-19T05:41:15.370Z,74.01
2022-12-19T05:43:54.715Z,73.88
2022-12-19T05:46:27.417Z,73.68
2022-12-19T05:48:59.413Z,73.74
2022-12-19T05:51:31.582Z,73.18
2022-12-19T05:54:03.314Z,73.41
2022-12-19T05:56:34.952Z,73.30
2022-12-19T05:59:06.516Z,73.49
2022-12-19T06:01:38.438Z,73.54
2022-12-19T06:04:10.143Z,73.37
2022-12-19T06:06:44.543Z,73.37
2022-12-19T06:09:16.190Z,73.35
2022-12-19T06:11:47.842Z,72.95
2022-12-19T06:14:19.415Z,72.91
2022-12-19T06:16:51.003Z,73.00
2022-12-19T06:19:22.786Z,73.01
2022-12-19T06:21:54.346Z,73.14
2022-12-19T06:24:26.797Z,73.24
2022-12-19T06:26:59.404Z,73.61
2022-12-19T06:29:31.033Z,73.30
2022-12-19T06:32:02.654Z,73.26
2022-12-19T06:35:02.833Z,73.23
2022-12-19T06:37:25.893Z,73.06
2022-12-19T06:39:58.459Z,72.73
2022-12-19T06:42:30.057Z,72.46
2022-12-19T06:45:01.704Z,72.60
2022-12-19T06:47:33.245Z,72.47
2022-12-19T06:50:05.092Z,72.41
2022-12-19T06:52:36.940Z,72.28
2022-12-19T06:55:09.408Z,72.34
2022-12-19T06:57:46.046Z,72.45
2022-12-19T07:00:17.974Z,72.06
2022-12-19T07:02:51.762Z,72.16
2022-12-19T07:05:23.644Z,72.30
2022-12-19T07:07:58.254Z,72.51
2022-12-19T07:10:29.918Z,72.66
2022-12-19T07:13:01.993Z,72.67
2022-12-19T07:15:35.031Z,72.78
2022-12-19T07:18:09.489Z,72.59
2022-12-19T07:20:45.220Z,72.69
2022-12-19T07:23:20.369Z,72.68
2022-12-19T07:25:51.994Z,72.59
2022-12-19T07:28:23.770Z,72.09
2022-12-19T07:30:56.035Z,72.05
2022-12-19T07:33:27.868Z,71.86
2022-12-19T07:35:59.443Z,71.92
2022-12-19T07:38:30.997Z,71.42
2022-12-19T07:41:02.925Z,71.65
2022-12-19T07:43:34.567Z,71.18
2022-12-19T07:46:06.222Z,71.37
2022-12-19T07:48:37.943Z,71.30
2022-12-19T07:51:09.534Z,71.34
2022-12-19T07:53:41.181Z,71.00
2022-12-19T07:56:12.747Z,71.04
2022-12-19T07:58:44.813Z,70.77
2022-12-19T08:01:16.569Z,70.54
2022-12-19T08:03:48.212Z,70.60
2022-12-19T08:06:20.226Z,70.95
2022-12-19T08:08:51.914Z,70.96
2022-12-19T08:11:27.430Z,70.51
2022-12-19T08:13:59.393Z,70.41
2022-12-19T08:16:31.199Z,69.98
2022-12-19T08:19:03.614Z,69.82
2022-12-19T08:21:35.235Z,69.77
2022-12-19T08:24:07.143Z,70.00
2022-12-19T08:26:43.151Z,69.89
2022-12-19T08:29:17.695Z,70.11
2022-12-19T08:31:49.434Z,69.66
2022-12-19T08:34:21.109Z,70.20
2022-12-19T08:36:52.693Z,70.02
2022-12-19T08:39:24.300Z,69.84
2022-12-19T08:41:55.849Z,69.25
2022-12-19T08:44:27.530Z,69.58
2022-12-19T08:46:59.163Z,69.63
2022-12-19T08:49:30.825Z,70.04
2022-12-19T08:52:02.651Z,70.00
2022-12-19T08:54:34.293Z,69.95
2022-12-19T08:57:05.862Z,70.27
2022-12-19T08:59:37.487Z,70.18
2022-12-19T09:02:11.149Z,70.64
2022-12-19T09:05:58.786Z,70.55
2022-12-19T09:07:37.856Z,69.88
2022-12-19T09:10:10.470Z,69.71
2022-12-19T09:12:42.073Z,69.61
2022-12-19T09:15:14.096Z,70.20
2022-12-19T09:17:45.834Z,70.08
2022-12-19T09:20:22.945Z,70.10
2022-12-19T09:22:55.290Z,70.98
2022-12-19T09:25:26.898Z,71.39
2022-12-19T09:28:26.921Z,70.61
2022-12-19T09:31:07.765Z,70.04
2022-12-19T09:33:43.562Z,69.57
2022-12-19T09:36:18.396Z,69.78
2022-12-19T09:38:53.496Z,69.33
2022-12-19T09:41:34.223Z,69.05
2022-12-19T09:44:15.461Z,68.55
2022-12-19T09:46:57.173Z,68.30
2022-12-19T09:49:42.813Z,68.17
2022-12-19T09:52:30.425Z,67.34
2022-12-19T09:55:22.996Z,67.41
2022-12-19T09:57:54.540Z,67.43
2022-12-19T10:00:42.131Z,66.95
2022-12-19T10:03:33.554Z,67.00
2022-12-19T10:07:11.921Z,67.18
2022-12-19T10:10:55.565Z,66.69
2022-12-19T10:12:42.502Z,65.93
2022-12-19T10:16:00.538Z,65.28
2022-12-19T10:18:42.230Z,64.24
2022-12-19T10:21:36.976Z,64.43
2022-12-19T10:25:08.019Z,63.80
2022-12-19T10:27:58.489Z,64.13
2022-12-19T10:30:36.565Z,63.72
2022-12-19T10:33:23.557Z,64.00
2022-12-19T10:36:01.988Z,63.75
2022-12-19T10:38:46.197Z,63.86
2022-12-19T10:41:36.767Z,63.64
2022-12-19T10:44:15.884Z,63.34
2022-12-19T10:46:49.717Z,62.39
2022-12-19T10:49:24.965Z,61.67
2022-12-19T10:51:56.505Z,60.67
2022-12-19T10:54:40.266Z,60.77
2022-12-19T10:57:30.055Z,60.76
2022-12-19T11:00:05.385Z,60.69
2022-12-19T11:02:49.341Z,60.67
2022-12-19T11:05:29.024Z,61.16
2022-12-19T11:08:07.970Z,60.81
2022-12-19T11:11:12.037Z,60.85
2022-12-19T11:19:17.625Z,60.79
2022-12-19T11:24:45.797Z,60.30
2022-12-19T11:29:24.898Z,60.23
2022-12-19T11:29:44.181Z,60.39
2022-12-19T11:29:44.967Z,59.75
2022-12-19T11:30:44.320Z,60.02
2022-12-19T11:34:23.700Z,60.10
2022-12-19T11:37:18.465Z,60.25
2022-12-19T11:40:41.743Z,60.08
2022-12-19T11:43:43.602Z,60.13
2022-12-19T11:46:23.931Z,60.17
2022-12-19T11:49:23.304Z,60.20
2022-12-19T11:52:03.991Z,60.41
2022-12-19T11:55:04.630Z,59.85
2022-12-19T11:57:39.586Z,60.29
2022-12-19T12:00:30.465Z,60.12
2022-12-19T12:03:35.568Z,60.53
2022-12-19T12:06:16.210Z,60.45
2022-12-19T12:11:31.607Z,60.24
2022-12-19T12:15:01.793Z,60.81
2022-12-19T12:30:19.041Z,60.72
2022-12-19T12:31:09.270Z,61.08
2022-12-19T12:31:17.060Z,61.60
2022-12-19T12:31:42.627Z,61.28
2022-12-19T12:32:01.912Z,61.92
2022-12-19T12:35:46.567Z,61.60
2022-12-19T12:36:53.126Z,62.02
2022-12-19T12:38:22.969Z,62.04
2022-12-19T12:41:09.465Z,62.50
2022-12-19T12:43:54.935Z,62.71
2022-12-19T12:46:31.365Z,62.89
2022-12-19T12:49:30.356Z,62.89
2022-12-19T12:52:06.239Z,63.27
2022-12-19T12:54:44.722Z,63.13
2022-12-19T12:57:37.565Z,63.26
2022-12-19T13:00:31.851Z,63.45
2022-12-19T13:03:13.103Z,63.35
2022-12-19T13:05:54.881Z,63.96
2022-12-19T13:08:46.721Z,64.13
2022-12-19T13:11:37.457Z,64.37
2022-12-19T13:14:39.798Z,64.68
2022-12-19T13:17:44.726Z,64.96
2022-12-19T13:20:17.177Z,64.43
2022-12-19T13:23:00.561Z,64.55
2022-12-19T13:25:35.004Z,64.51
2022-12-19T13:28:26.445Z,65.14
2022-12-19T13:31:20.787Z,65.15
2022-12-19T13:33:55.647Z,65.26
2022-12-19T13:39:48.680Z,65.12
2022-12-19T13:40:09.104Z,65.62
2022-12-19T13:43:14.857Z,65.42
2022-12-19T13:45:53.476Z,65.37
2022-12-19T13:48:40.128Z,65.43
2022-12-19T13:51:13.555Z,65.92
2022-12-19T13:53:45.145Z,66.52
2022-12-19T13:56:19.358Z,66.22
2022-12-19T13:59:03.770Z,66.89
2022-12-19T14:01:37.482Z,66.58
2022-12-19T14:04:20.499Z,66.99
2022-12-19T14:07:06.643Z,67.37
2022-12-19T14:11:26.477Z,67.35
2022-12-19T14:13:55.602Z,67.79
2022-12-19T14:15:51.981Z,67.81
2022-12-19T14:18:42.877Z,68.16
2022-12-19T14:22:06.091Z,68.23
2022-12-19T14:24:25.056Z,68.02
2022-12-19T14:28:18.525Z,68.72
2022-12-19T14:30:30.381Z,68.94
2022-12-19T14:33:47.422Z,68.91
2022-12-19T14:36:12.072Z,69.05
2022-12-19T14:39:24.217Z,69.01
2022-12-19T14:42:01.518Z,68.85
2022-12-19T14:52:08.383Z,69.29
2022-12-19T14:53:52.729Z,69.48
2022-12-19T14:54:22.685Z,69.89
2022-12-19T14:54:22.926Z,69.56
2022-12-19T14:59:35.775Z,69.88
2022-12-19T15:02:07.465Z,69.89
2022-12-19T15:04:51.396Z,70.52
2022-12-19T15:07:29.961Z,70.78
2022-12-19T15:11:02.371Z,70.43
2022-12-19T15:14:47.391Z,70.61
2022-12-19T15:16:34.600Z,71.00
2022-12-19T15:19:12.622Z,70.87
2022-12-19T15:21:44.220Z,70.43
2022-12-19T15:24:18.657Z,70.69
2022-12-19T15:26:53.355Z,70.71
2022-12-19T15:29:26.624Z,71.11
2022-12-19T15:31:58.469Z,70.92
2022-12-19T15:34:37.373Z,70.93
2022-12-19T15:37:11.822Z,71.26
2022-12-19T15:39:44.934Z,71.98
2022-12-19T15:42:25.125Z,72.09
2022-12-19T15:44:59.875Z,71.91
2022-12-19T15:47:33.344Z,71.93
2022-12-19T15:50:29.346Z,71.93
2022-12-19T15:53:05.770Z,71.87
2022-12-19T15:55:39.566Z,72.07
2022-12-19T15:58:13.573Z,71.86
2022-12-19T16:00:57.595Z,71.59
2022-12-19T16:03:29.595Z,71.28
2022-12-19T16:06:01.408Z,71.57
2022-12-19T16:08:32.995Z,71.70
2022-12-19T16:11:04.675Z,72.12
2022-12-19T16:13:36.339Z,72.10
2022-12-19T16:16:15.412Z,71.94
2022-12-19T16:18:47.602Z,72.13
2022-12-19T16:21:29.223Z,71.70
2022-12-19T16:24:05.306Z,71.70
2022-12-19T16:26:40.281Z,71.62
2022-12-19T16:29:23.924Z,71.87
2022-12-19T16:31:56.880Z,71.29
2022-12-19T16:34:28.622Z,71.19
2022-12-19T16:37:00.354Z,71.15
2022-12-19T16:39:31.922Z,71.32
2022-12-19T16:42:07.102Z,70.50
2022-12-19T16:44:38.688Z,69.98
2022-12-19T16:47:16.121Z,70.32
2022-12-19T16:49:47.786Z,70.13
2022-12-19T16:52:19.364Z,69.80
2022-12-19T16:54:51.179Z,69.83
2022-12-19T16:57:22.875Z,69.45
2022-12-19T16:59:54.600Z,69.57
2022-12-19T17:02:38.533Z,68.96
2022-12-19T17:05:25.341Z,68.81
2022-12-19T17:07:58.238Z,69.03
2022-12-19T17:10:33.519Z,69.07
2022-12-19T17:13:05.189Z,69.37
2022-12-19T17:15:38.787Z,68.91
2022-12-19T17:18:27.147Z,69.05
2022-12-19T17:20:59.098Z,69.42
2022-12-19T17:23:32.616Z,69.40
2022-12-19T17:26:04.481Z,68.92
2022-12-19T17:28:36.147Z,69.08
2022-12-19T17:31:17.595Z,69.24
2022-12-19T17:33:58.035Z,69.74
2022-12-19T17:36:37.017Z,69.61
2022-12-19T17:39:36.257Z,69.98
2022-12-19T17:42:18.464Z,70.08
2022-12-19T17:44:50.870Z,69.67
2022-12-19T17:47:22.694Z,69.80
2022-12-19T17:49:55.960Z,69.57
2022-12-19T17:52:29.217Z,69.40
2022-12-19T17:55:01.003Z,69.71
2022-12-19T17:57:32.662Z,68.71
2022-12-19T18:00:04.861Z,69.14
2022-12-19T18:02:45.863Z,68.95
2022-12-19T18:05:25.907Z,69.47
2022-12-19T18:07:57.623Z,69.64
2022-12-19T18:10:31.405Z,69.69
2022-12-19T18:13:04.377Z,69.44
2022-12-19T18:15:36.170Z,69.77
2022-12-19T18:18:13.994Z,69.43
2022-12-19T18:20:45.787Z,70.28
2022-12-19T18:23:20.772Z,70.31
2022-12-19T18:25:59.306Z,70.50
2022-12-19T18:28:33.036Z,69.97
2022-12-19T18:31:14.305Z,69.99
2022-12-19T18:33:55.408Z,70.50
2022-12-19T18:36:33.988Z,70.52
2022-12-19T18:39:26.900Z,70.65
2022-12-19T18:41:58.521Z,70.82
2022-12-19T18:44:30.119Z,70.83
2022-12-19T18:47:02.082Z,70.43
2022-12-19T18:49:36.667Z,70.48
2022-12-19T18:52:10.570Z,71.19
2022-12-19T18:54:42.455Z,71.02
2022-12-19T18:57:14.642Z,70.96
2022-12-19T18:59:47.864Z,71.50
2022-12-19T19:02:26.552Z,71.82
2022-12-19T19:04:59.318Z,72.01
2022-12-19T19:07:31.005Z,71.63
2022-12-19T19:10:06.218Z,72.30
2022-12-19T19:12:45.036Z,72.09
2022-12-19T19:15:19.108Z,72.22
2022-12-19T19:18:00.207Z,72.19
2022-12-19T19:20:36.188Z,72.08
2022-12-19T19:23:11.370Z,72.07
2022-12-19T19:25:44.244Z,72.30
2022-12-19T19:28:16.093Z,71.90
2022-12-19T19:30:47.723Z,72.45
2022-12-19T19:33:25.475Z,72.11
2022-12-19T19:36:04.683Z,72.17
2022-12-19T19:38:45.454Z,72.68
2022-12-19T19:41:17.474Z,72.39
2022-12-19T19:43:49.106Z,72.61
2022-12-19T19:46:21.988Z,72.72
2022-12-19T19:48:54.082Z,72.52
2022-12-19T19:51:29.067Z,72.88
2022-12-19T19:54:00.980Z,72.63
2022-12-19T19:56:32.615Z,72.64
2022-12-19T19:59:07.818Z,73.05
2022-12-19T20:01:42.290Z,72.85
2022-12-19T20:04:16.635Z,73.00
2022-12-19T20:06:48.435Z,73.18
2022-12-19T20:09:20.094Z,73.28
2022-12-19T20:11:51.739Z,72.46
2022-12-19T20:14:23.884Z,72.67
2022-12-19T20:16:55.812Z,72.51
2022-12-19T20:19:27.558Z,72.53
2022-12-19T20:22:00.211Z,72.08
2022-12-19T20:24:32.038Z,72.16
2022-12-19T20:27:03.667Z,71.96
2022-12-19T20:29:35.395Z,71.80
2022-12-19T20:32:07.085Z,72.11
2022-12-19T20:34:38.740Z,72.01
2022-12-19T20:37:10.516Z,72.10
2022-12-19T20:39:42.359Z,71.80
2022-12-19T20:42:14.010Z,71.99
2022-12-19T20:44:45.662Z,71.94
2022-12-19T20:47:17.341Z,71.61
2022-12-19T20:49:49.041Z,71.92
2022-12-19T20:52:20.738Z,71.48
2022-12-19T20:54:52.348Z,71.87
2022-12-19T20:57:23.897Z,72.22
2022-12-19T20:59:55.655Z,71.87
2022-12-19T21:02:27.508Z,72.10
2022-12-19T21:04:59.891Z,72.19
2022-12-19T21:07:31.550Z,72.60
2022-12-19T21:10:03.387Z,72.55
2022-12-19T21:12:34.931Z,72.44
2022-12-19T21:15:07.125Z,72.48
2022-12-19T21:17:38.697Z,72.46
2022-12-19T21:20:11.124Z,72.89
2022-12-19T21:22:42.681Z,73.17
2022-12-19T21:25:14.460Z,72.76
2022-12-19T21:27:46.771Z,73.50
2022-12-19T21:30:19.102Z,72.95
2022-12-19T21:32:50.726Z,72.96
2022-12-19T21:35:22.620Z,73.02
2022-12-19T21:37:54.257Z,72.86
2022-12-19T21:40:25.880Z,73.21
2022-12-19T21:42:57.443Z,72.68
2022-12-19T21:45:29.404Z,73.05
2022-12-19T21:48:01.509Z,72.76
2022-12-19T21:50:36.262Z,73.56
2022-12-19T21:53:07.912Z,72.82
2022-12-19T21:55:40.010Z,72.98
2022-12-19T21:58:11.620Z,72.86
2022-12-19T22:00:43.249Z,73.02
2022-12-19T22:03:16.325Z,72.88
2022-12-19T22:05:49.064Z,73.01
2022-12-19T22:08:20.600Z,72.99
2022-12-19T22:10:52.255Z,72.68
2022-12-19T22:13:24.077Z,72.83
2022-12-19T22:16:01.926Z,73.37
2022-12-19T22:18:35.316Z,73.51
2022-12-19T22:21:09.285Z,72.94
2022-12-19T22:23:41.855Z,73.14
2022-12-19T22:26:14.694Z,73.47
2022-12-19T22:28:48.789Z,73.50
2022-12-19T22:31:23.911Z,73.65
2022-12-19T22:34:08.029Z,73.56
2022-12-19T22:36:41.380Z,73.58
2022-12-19T22:39:17.704Z,73.19
2022-12-19T22:41:49.371Z,73.07
2022-12-19T22:44:23.640Z,73.39
2022-12-19T22:46:55.377Z,73.35
2022-12-19T22:49:27.082Z,73.53
2022-12-19T22:51:58.690Z,73.58
2022-12-19T22:54:30.327Z,73.14
2022-12-19T22:57:01.945Z,73.23
2022-12-19T22:59:33.593Z,73.68
2022-12-19T23:02:05.468Z,73.59
2022-12-19T23:04:37.248Z,73.43
2022-12-19T23:07:08.840Z,73.48
2022-12-19T23:09:40.486Z,73.49
2022-12-19T23:12:12.109Z,73.42
2022-12-19T23:14:43.736Z,73.53
2022-12-19T23:17:15.589Z,73.64
2022-12-19T23:19:47.261Z,73.88
2022-12-19T23:22:18.936Z,73.90
2022-12-19T23:24:50.537Z,73.82
2022-12-19T23:27:22.354Z,73.65
2022-12-19T23:29:53.923Z,73.88
2022-12-19T23:32:25.580Z,73.51
2022-12-19T23:34:57.227Z,74.07
2022-12-19T23:37:28.806Z,73.75
2022-12-19T23:40:00.374Z,73.63
2022-12-19T23:42:31.985Z,73.68
2022-12-19T23:45:03.727Z,73.81
2022-12-19T23:47:35.386Z,73.54
2022-12-19T23:50:07.750Z,73.84
2022-12-19T23:52:39.420Z,73.79
2022-12-19T23:55:11.559Z,73.94
2022-12-19T23:57:43.164Z,74.01
